Time;durP1;ratioP1;P1;durP2;ratioP2;P2;SDS_P1;SDS_P2;PMS_P1;PMS_P2;Temp;Humidity;BMP_temperature;BMP_pressure;BME280_temperature;BME280_humidity;BME280_pressure;Samples;Min_cycle;Max_cycle;Signal;HPM_P1;HPM_P2
2022/01/21 00:00:04;;;;;;;0.50;0.50;;;1.90;99.90;;;1.71;100.00;101192.72;4906440;29;20227;-82
2022/01/21 00:02:38;;;;;;;0.20;0.20;;;1.90;99.90;;;1.62;100.00;101180.88;4932362;29;20210;-81
2022/01/21 00:05:07;;;;;;;0.20;0.20;;;1.90;99.90;;;1.53;100.00;101176.03;4917296;29;20214;-82
2022/01/21 00:07:35;;;;;;;0.20;0.20;;;1.80;99.90;;;1.64;100.00;101211.44;4891927;29;20210;-81
2022/01/21 00:10:05;;;;;;;0.20;0.20;;;1.80;99.90;;;1.71;100.00;101225.72;4920487;29;20231;-82
2022/01/21 00:12:34;;;;;;;0.20;0.20;;;1.80;99.90;;;1.74;100.00;101215.47;4892489;29;20222;-82
2022/01/21 00:15:06;;;;;;;0.20;0.20;;;1.80;99.90;;;1.81;100.00;101230.66;4892145;29;20645;-82
2022/01/21 00:17:35;;;;;;;0.20;0.20;;;1.90;99.90;;;1.84;100.00;101223.00;4903373;29;20214;-82
2022/01/21 00:31:14;;;;;;;0.20;0.20;;;1.80;99.90;;;1.51;100.00;101204.63;4928955;29;20206;-81
2022/01/21 00:33:42;;;;;;;0.20;0.20;;;1.80;99.90;;;1.53;100.00;101216.03;4907915;29;20223;-82
2022/01/21 00:36:10;;;;;;;0.20;0.20;;;1.70;99.90;;;1.58;100.00;101229.34;4902732;29;20200;-82
2022/01/21 00:38:41;;;;;;;0.20;0.20;;;1.70;99.90;;;1.52;100.00;101224.66;4914889;29;20233;-81
2022/01/21 00:41:09;;;;;;;0.20;0.20;;;1.70;99.90;;;1.54;100.00;101227.38;4922129;29;20280;-82
2022/01/21 00:43:44;;;;;;;1.00;1.00;;;1.70;99.90;;;1.51;100.00;101225.47;4907306;29;20219;-82
2022/01/21 00:46:12;;;;;;;0.20;0.20;;;1.70;99.90;;;1.46;100.00;101231.25;4946805;29;20211;-81
2022/01/21 00:48:41;;;;;;;0.20;0.20;;;1.70;99.90;;;1.50;100.00;101243.63;4901022;29;20234;-81
2022/01/21 00:51:08;;;;;;;0.20;0.20;;;1.70;99.90;;;1.48;100.00;101251.38;4905918;29;20219;-82
2022/01/21 00:53:36;;;;;;;0.20;0.20;;;1.70;99.90;;;1.49;100.00;101270.53;4899673;29;20686;-82
2022/01/21 00:56:05;;;;;;;0.20;0.20;;;1.70;99.90;;;1.43;100.00;101264.94;4911328;29;20207;-82
2022/01/21 00:58:33;;;;;;;0.20;0.20;;;1.70;99.90;;;1.28;100.00;101254.47;4914261;28;20238;-81
2022/01/21 01:01:01;;;;;;;0.20;0.20;;;1.60;99.90;;;1.47;100.00;101290.38;4917497;29;20718;-82
2022/01/21 01:03:29;;;;;;;0.20;0.20;;;1.60;99.90;;;1.52;100.00;101294.16;4890477;29;20210;-82
2022/01/21 01:05:58;;;;;;;0.20;0.20;;;1.60;99.90;;;1.54;100.00;101298.66;4934861;29;20218;-81
2022/01/21 01:08:26;;;;;;;0.20;0.20;;;1.70;99.90;;;1.51;100.00;101280.22;4889374;29;20243;-82
2022/01/21 01:21:38;;;;;;;0.20;0.20;;;1.60;99.90;;;1.44;100.00;101283.28;4921361;29;20214;-81
2022/01/21 01:29:25;;;;;;;0.20;0.20;;;1.60;99.90;;;1.55;100.00;101296.94;4926683;23;20225;-80
2022/01/21 01:31:53;;;;;;;0.20;0.20;;;1.60;99.90;;;1.61;100.00;101315.56;4889753;29;20216;-82
2022/01/21 01:34:22;;;;;;;0.20;0.20;;;1.70;99.90;;;1.54;100.00;101295.16;4875423;29;20233;-82
2022/01/21 01:36:52;;;;;;;0.20;0.20;;;1.70;99.90;;;1.49;100.00;101276.63;4860731;29;20211;-81
2022/01/21 01:50:41;;;;;;;0.20;0.20;;;1.80;99.90;;;1.58;100.00;101271.94;4892055;29;20227;-81
2022/01/21 01:53:10;;;;;;;0.20;0.20;;;1.80;99.90;;;1.58;100.00;101274.56;4878372;29;20209;-82
2022/01/21 01:55:38;;;;;;;0.20;0.20;;;1.80;99.90;;;1.54;100.00;101264.75;4862430;29;20255;-81
2022/01/21 01:58:06;;;;;;;0.20;0.20;;;1.80;99.90;;;1.56;100.00;101273.56;4886177;29;20224;-82
2022/01/21 02:00:35;;;;;;;0.20;0.20;;;1.80;99.90;;;1.42;100.00;101248.41;4850675;29;20232;-82
2022/01/21 02:03:14;;;;;;;0.20;0.20;;;1.70;99.90;;;1.45;100.00;101253.81;4864619;29;20220;-81
2022/01/21 02:05:43;;;;;;;0.20;0.20;;;1.70;99.90;;;1.28;100.00;101244.06;4869053;29;20204;-82
2022/01/21 02:08:11;;;;;;;0.20;0.20;;;1.60;99.90;;;1.24;100.00;101252.50;4879207;29;20244;-81
2022/01/21 02:10:40;;;;;;;0.20;0.20;;;1.60;99.90;;;1.36;100.00;101276.72;4863676;29;20244;-81
2022/01/21 02:21:46;;;;;;;0.20;0.20;;;1.40;99.90;;;1.11;100.00;101253.47;4895182;29;20221;-82
2022/01/21 02:24:21;;;;;;;0.20;0.20;;;1.40;99.90;;;1.10;100.00;101261.22;4859316;29;20219;-81
2022/01/21 02:26:52;;;;;;;0.20;0.20;;;1.40;99.90;;;1.08;100.00;101255.91;4852569;29;20216;-82
2022/01/21 02:29:37;;;;;;;0.20;0.20;;;1.30;99.90;;;1.14;100.00;101278.81;4884827;29;20240;-81
2022/01/21 02:32:06;;;;;;;0.20;0.20;;;1.30;99.90;;;1.08;100.00;101265.44;4873258;29;20219;-81
2022/01/21 02:34:34;;;;;;;0.20;0.20;;;1.30;99.90;;;1.02;100.00;101259.84;4877466;29;20244;-82
2022/01/21 02:37:03;;;;;;;0.28;0.28;;;1.70;99.90;;;1.03;100.00;101266.84;4882216;29;20211;-82
2022/01/21 02:39:32;;;;;;;0.20;0.20;;;1.30;99.90;;;1.01;100.00;101271.97;4859044;29;20235;-81
2022/01/21 02:42:00;;;;;;;0.20;0.20;;;1.20;99.90;;;0.91;100.00;101261.81;4875887;29;20219;-82
2022/01/21 02:44:27;;;;;;;0.20;0.20;;;1.10;99.90;;;0.99;100.00;101277.91;4858668;29;20228;-81
2022/01/21 02:47:01;;;;;;;0.20;0.20;;;1.20;99.90;;;0.83;100.00;101248.31;4879046;29;20212;-81
2022/01/21 02:49:35;;;;;;;0.22;0.22;;;1.20;99.90;;;0.80;100.00;101260.25;4881388;29;20232;-81
2022/01/21 02:52:06;;;;;;;0.20;0.20;;;1.10;99.90;;;0.72;100.00;101259.78;4876335;29;20580;-81
2022/01/21 02:54:34;;;;;;;0.20;0.20;;;1.00;99.90;;;0.72;100.00;101269.31;4863711;29;20225;-82
2022/01/21 02:57:06;;;;;;;0.22;0.22;;;1.40;99.90;;;0.75;100.00;101291.22;4843344;29;20220;-81
2022/01/21 02:59:33;;;;;;;0.20;0.20;;;1.00;99.90;;;0.74;100.00;101293.72;4875619;29;20232;-81
2022/01/21 03:02:03;;;;;;;0.20;0.20;;;1.10;99.90;;;0.73;100.00;101304.94;4887365;29;20215;-82
2022/01/21 03:05:16;;;;;;;0.20;0.20;;;0.90;99.90;;;0.74;100.00;101312.84;4877156;29;20224;-81
2022/01/21 03:07:23;;;;;;;0.20;0.20;;;1.30;99.90;;;0.71;100.00;101317.88;4870507;29;20229;-80
2022/01/21 03:09:51;;;;;;;0.20;0.20;;;1.20;99.90;;;0.81;100.00;101341.06;4877578;29;20232;-81
2022/01/21 03:12:21;;;;;;;0.20;0.20;;;1.20;99.90;;;0.72;100.00;101330.09;4833716;29;20215;-81
2022/01/21 03:14:50;;;;;;;0.30;0.30;;;1.20;99.90;;;0.78;100.00;101348.69;4889614;29;20605;-82
2022/01/21 03:17:18;;;;;;;0.20;0.20;;;1.10;99.90;;;0.66;100.00;101326.19;4888378;29;20217;-81
2022/01/21 03:19:46;;;;;;;0.20;0.20;;;0.90;99.90;;;0.60;100.00;101318.91;4889784;29;20229;-81
2022/01/21 03:22:14;;;;;;;0.20;0.20;;;0.90;99.90;;;0.64;100.00;101331.31;4868351;29;20205;-81
2022/01/21 03:24:42;;;;;;;0.20;0.20;;;0.80;99.90;;;0.60;100.00;101331.91;4876299;29;20215;-81
2022/01/21 03:27:10;;;;;;;0.20;0.20;;;0.90;99.90;;;0.64;100.00;101342.63;4869154;29;20208;-81
2022/01/21 03:29:38;;;;;;;0.20;0.20;;;1.10;99.90;;;0.66;100.00;101347.03;4886256;29;20260;-81
2022/01/21 03:32:06;;;;;;;0.20;0.20;;;1.20;99.90;;;0.73;100.00;101359.63;4872426;29;20201;-80
2022/01/21 03:34:37;;;;;;;0.20;0.20;;;0.80;99.90;;;0.57;100.00;101342.13;4857910;29;20213;-80
2022/01/21 03:37:05;;;;;;;0.20;0.20;;;1.10;99.90;;;0.75;100.00;101373.63;4874219;29;20217;-82
2022/01/21 03:39:34;;;;;;;0.20;0.20;;;0.80;99.90;;;0.70;100.00;101362.94;4864756;29;20232;-81
2022/01/21 03:42:02;;;;;;;0.20;0.20;;;0.80;99.90;;;0.58;100.00;101346.53;4873878;29;20205;-81
2022/01/21 03:44:31;;;;;;;0.20;0.20;;;0.80;99.90;;;0.56;100.00;101346.44;4871644;29;20221;-81
2022/01/21 03:46:59;;;;;;;0.20;0.20;;;0.80;99.90;;;0.68;100.00;101363.63;4858471;29;20212;-81
2022/01/21 03:49:35;;;;;;;0.20;0.20;;;0.80;99.90;;;0.70;100.00;101352.50;4874499;29;20256;-81
2022/01/21 03:52:05;;;;;;;0.20;0.20;;;1.10;99.90;;;0.64;100.00;101337.41;4871169;29;20225;-81
2022/01/21 03:54:37;;;;;;;0.20;0.20;;;0.80;99.90;;;0.59;100.00;101331.03;4841643;29;20221;-81
2022/01/21 03:57:05;;;;;;;0.20;0.20;;;0.80;99.90;;;0.62;100.00;101352.03;4902745;29;20236;-81
2022/01/21 03:59:33;;;;;;;0.20;0.20;;;0.80;99.90;;;0.68;100.00;101353.22;4862985;29;20252;-81
2022/01/21 04:02:04;;;;;;;0.20;0.20;;;0.80;99.90;;;0.55;100.00;101328.13;4868341;29;20220;-82
2022/01/21 04:04:34;;;;;;;0.20;0.20;;;0.70;99.90;;;0.62;100.00;101351.13;4876036;29;20209;-82
2022/01/21 04:07:03;;;;;;;0.20;0.20;;;0.80;99.90;;;0.55;100.00;101334.22;4866222;29;20208;-82
2022/01/21 04:09:39;;;;;;;0.30;0.30;;;0.70;99.90;;;0.45;100.00;101328.34;4882185;29;20236;-82
2022/01/21 04:12:09;;;;;;;0.20;0.20;;;0.90;99.90;;;0.41;100.00;101324.66;4880929;29;20208;-82
2022/01/21 04:14:38;;;;;;;0.20;0.20;;;0.70;99.90;;;0.35;100.00;101321.66;4894870;29;20223;-82
2022/01/21 04:17:07;;;;;;;0.20;0.20;;;0.80;99.90;;;0.35;100.00;101332.06;4882265;29;20225;-82
2022/01/21 04:19:35;;;;;;;0.20;0.20;;;0.70;99.90;;;0.37;100.00;101334.75;4881017;29;20235;-81
2022/01/21 04:22:05;;;;;;;0.20;0.20;;;0.60;99.90;;;0.38;100.00;101339.16;4896658;29;20208;-82
2022/01/21 04:24:36;;;;;;;0.20;0.20;;;0.60;99.90;;;0.20;100.00;101321.56;4895376;29;20212;-82
2022/01/21 04:27:04;;;;;;;0.20;0.20;;;0.50;99.90;;;0.32;100.00;101352.69;4871770;29;20249;-80
2022/01/21 04:29:32;;;;;;;0.30;0.30;;;0.50;99.90;;;0.27;100.00;101334.19;4864918;29;20236;-81
2022/01/21 04:32:04;;;;;;;0.20;0.20;;;0.50;99.90;;;0.25;100.00;101335.78;4895328;29;20219;-82
2022/01/21 04:34:33;;;;;;;0.20;0.20;;;0.50;99.90;;;0.49;100.00;101374.59;4886091;29;20225;-82
2022/01/21 04:37:07;;;;;;;0.20;0.20;;;0.50;99.90;;;0.25;100.00;101330.56;4881950;29;20236;-82
2022/01/21 04:39:54;;;;;;;0.20;0.20;;;0.50;99.90;;;0.18;100.00;101324.88;4874095;29;20228;-81
2022/01/21 04:47:40;;;;;;;0.20;0.20;;;0.40;99.90;;;0.18;100.00;101336.19;4859733;29;20212;-79
2022/01/21 04:50:14;;;;;;;0.20;0.20;;;0.50;99.90;;;0.29;100.00;101358.59;4866870;29;20319;-82
2022/01/21 04:52:47;;;;;;;0.25;0.25;;;0.50;99.90;;;0.12;100.00;101333.19;4884848;29;20204;-82
2022/01/21 04:55:29;;;;;;;0.20;0.20;;;0.40;99.90;;;0.13;100.00;101344.50;4850234;29;20211;-81
2022/01/21 04:57:57;;;;;;;0.20;0.20;;;0.40;99.90;;;0.08;100.00;101340.69;4909623;29;20209;-81
2022/01/21 05:00:25;;;;;;;3.38;3.05;;;0.50;99.90;;;0.20;100.00;101365.78;4877474;29;20231;-82
2022/01/21 05:02:53;;;;;;;0.20;0.20;;;0.60;99.90;;;0.24;100.00;101369.50;4874820;29;20220;-81
2022/01/21 05:05:24;;;;;;;0.20;0.20;;;0.40;99.90;;;0.24;100.00;101370.41;4890347;29;20220;-82
2022/01/21 05:07:53;;;;;;;0.30;0.30;;;0.40;99.90;;;0.28;100.00;101376.69;4846074;29;20213;-82
2022/01/21 05:10:28;;;;;;;0.20;0.20;;;0.80;99.90;;;0.39;100.00;101398.22;4871495;29;20236;-79
2022/01/21 05:12:56;;;;;;;0.20;0.20;;;0.60;99.90;;;0.39;100.00;101399.13;4903683;29;20216;-82
2022/01/21 05:15:58;;;;;;;0.20;0.20;;;0.50;99.90;;;0.39;100.00;101398.22;4874897;29;20216;-82
2022/01/21 05:18:27;;;;;;;0.20;0.20;;;0.90;99.90;;;0.39;100.00;101404.31;4857760;29;20209;-82
2022/01/21 05:21:10;;;;;;;0.20;0.20;;;0.90;99.90;;;0.46;100.00;101419.53;4891012;29;20209;-82
2022/01/21 05:23:52;;;;;;;0.20;0.20;;;0.50;99.90;;;0.49;100.00;101408.41;4885820;29;20216;-81
2022/01/21 05:26:20;;;;;;;0.20;0.20;;;0.70;99.90;;;0.55;100.00;101420.13;4865365;29;20216;-81
2022/01/21 05:28:48;;;;;;;0.20;0.20;;;0.60;99.90;;;0.45;100.00;101399.50;4835956;29;20213;-81
2022/01/21 05:31:26;;;;;;;0.22;0.22;;;0.60;99.90;;;0.38;100.00;101383.41;4879236;29;20212;-84
2022/01/21 05:34:12;;;;;;;0.20;0.20;;;0.70;99.90;;;0.36;100.00;101395.41;4883616;29;20207;-82
2022/01/21 05:36:46;;;;;;;0.20;0.20;;;0.70;99.90;;;0.31;100.00;101392.50;4869196;29;20235;-82
2022/01/21 05:39:31;;;;;;;0.20;0.20;;;0.50;99.90;;;0.39;100.00;101411.22;4886004;29;20236;-80
2022/01/21 05:42:16;;;;;;;0.20;0.20;;;0.60;99.90;;;0.48;100.00;101430.94;4874068;29;20209;-82
2022/01/21 05:47:50;;;;;;;0.20;0.20;;;0.60;99.90;;;0.60;100.00;101446.44;4897345;29;20212;-80
2022/01/21 05:50:45;;;;;;;0.20;0.20;;;0.70;99.90;;;0.58;100.00;101435.03;4876861;29;20221;-80
2022/01/21 05:53:36;;;;;;;0.20;0.20;;;0.70;99.90;;;0.69;100.00;101449.63;4882639;29;20211;-81
2022/01/21 05:56:24;;;;;;;0.20;0.20;;;0.70;99.90;;;0.72;100.00;101452.44;4893650;29;20243;-81
2022/01/21 05:59:06;;;;;;;0.20;0.20;;;0.70;99.90;;;0.60;100.00;101429.13;4861998;29;20224;-82
2022/01/21 06:01:35;;;;;;;0.20;0.20;;;1.10;99.90;;;0.60;100.00;101425.63;4879472;29;20204;-81
2022/01/21 06:04:03;;;;;;;0.20;0.20;;;0.80;99.90;;;0.62;100.00;101437.94;4867640;29;20212;-82
2022/01/21 06:06:31;;;;;;;0.20;0.20;;;0.80;99.90;;;0.67;100.00;101442.53;4868161;29;20225;-82
2022/01/21 06:08:59;;;;;;;0.20;0.20;;;0.80;99.90;;;0.78;100.00;101447.63;4859815;29;20240;-83
2022/01/21 06:11:27;;;;;;;0.20;0.20;;;1.20;99.90;;;0.83;100.00;101450.53;4868664;29;20212;-82
2022/01/21 06:13:55;;;;;;;0.20;0.20;;;0.80;99.90;;;0.88;100.00;101444.81;4853743;29;20205;-82
2022/01/21 06:16:23;;;;;;;0.20;0.20;;;1.10;99.90;;;0.95;100.00;101446.09;4868860;29;20680;-82
2022/01/21 06:18:51;;;;;;;0.20;0.20;;;1.10;99.90;;;0.96;100.00;101445.28;4878659;29;20232;-83
2022/01/21 06:21:19;;;;;;;0.20;0.20;;;1.00;99.90;;;1.06;100.00;101457.19;4862428;29;20220;-82
2022/01/21 06:23:47;;;;;;;0.20;0.20;;;1.20;99.90;;;0.96;100.00;101441.00;4871263;29;20243;-82
2022/01/21 06:26:15;;;;;;;0.20;0.20;;;1.00;99.90;;;1.09;100.00;101441.75;4869427;29;20209;-81
2022/01/21 06:28:43;;;;;;;0.20;0.20;;;1.10;99.90;;;1.03;100.00;101426.66;4831193;29;20668;-81
2022/01/21 06:31:11;;;;;;;0.20;0.20;;;1.10;99.90;;;0.99;100.00;101422.03;4863141;29;20665;-80
2022/01/21 06:33:39;;;;;;;0.20;0.20;;;1.30;99.90;;;1.14;100.00;101436.03;4858000;29;20213;-81
2022/01/21 06:36:07;;;;;;;0.20;0.20;;;1.30;99.90;;;1.09;100.00;101426.13;4883072;29;20220;-81
2022/01/21 06:38:36;;;;;;;0.20;0.20;;;1.10;99.90;;;1.27;100.00;101464.66;4891040;29;20214;-82
2022/01/21 06:41:03;;;;;;;0.20;0.20;;;1.30;99.90;;;1.18;100.00;101442.34;4885863;29;20212;-81
2022/01/21 06:43:31;;;;;;;0.20;0.20;;;1.30;99.90;;;1.10;100.00;101438.34;4886847;29;20210;-81
2022/01/21 06:45:59;;;;;;;0.55;0.55;;;1.20;99.90;;;1.14;100.00;101462.09;4883720;29;20216;-83
2022/01/21 06:48:28;;;;;;;0.20;0.20;;;1.60;99.90;;;0.98;100.00;101446.28;4874753;29;20213;-83
2022/01/21 06:50:55;;;;;;;0.20;0.20;;;1.60;99.90;;;0.97;100.00;101457.50;4880038;29;20232;-83
2022/01/21 06:53:23;;;;;;;0.20;0.20;;;1.20;99.90;;;1.00;100.00;101467.22;4881143;29;20221;-82
2022/01/21 06:55:51;;;;;;;0.20;0.20;;;1.40;99.90;;;0.92;100.00;101462.44;4861732;29;20209;-82
2022/01/21 06:58:19;;;;;;;0.20;0.20;;;1.20;99.90;;;0.67;100.00;101439.94;4846843;29;20237;-82
2022/01/21 07:00:47;;;;;;;0.20;0.20;;;1.60;99.90;;;0.52;100.00;101445.06;4846041;29;20235;-82
2022/01/21 07:03:15;;;;;;;0.20;0.20;;;1.40;99.90;;;0.45;100.00;101455.84;4876823;29;20220;-82
2022/01/21 07:05:46;;;;;;;0.20;0.20;;;0.90;99.90;;;0.34;100.00;101462.97;4868788;29;20205;-82
2022/01/21 07:08:16;;;;;;;0.20;0.20;;;1.40;99.90;;;0.27;100.00;101468.56;4842970;29;20692;-81
2022/01/21 07:10:45;;;;;;;0.20;0.20;;;1.30;99.90;;;0.15;100.00;101462.53;4858140;29;20229;-82
2022/01/21 07:13:13;;;;;;;0.20;0.20;;;0.90;99.90;;;0.12;100.00;101480.53;4859071;29;20240;-81
2022/01/21 07:15:41;;;;;;;0.20;0.20;;;1.10;99.90;;;0.03;100.00;101470.41;4863733;29;20213;-82
2022/01/21 07:18:09;;;;;;;0.20;0.20;;;1.00;99.90;;;-0.03;100.00;101483.88;4860410;29;20232;-81
2022/01/21 07:20:37;;;;;;;0.20;0.20;;;0.50;99.90;;;0.01;100.00;101503.22;4863639;29;20235;-81
2022/01/21 07:23:05;;;;;;;0.20;0.20;;;0.80;99.90;;;0.03;100.00;101514.63;4876588;29;20211;-81
2022/01/21 07:25:33;;;;;;;0.20;0.20;;;0.50;99.90;;;0.02;100.00;101515.44;4870693;29;20224;-81
2022/01/21 07:28:01;;;;;;;0.20;0.20;;;0.80;99.90;;;-0.20;100.00;101486.13;4887846;29;20205;-81
2022/01/21 07:30:29;;;;;;;0.20;0.20;;;0.90;99.90;;;-0.17;100.00;101505.44;4887753;29;20246;-84
2022/01/21 07:32:57;;;;;;;0.20;0.20;;;0.70;99.90;;;-0.18;100.00;101514.03;4878790;29;20247;-83
2022/01/21 07:35:25;;;;;;;0.20;0.20;;;0.50;99.90;;;-0.24;100.00;101513.59;4884833;29;20207;-83
2022/01/21 07:38:11;;;;;;;0.20;0.20;;;0.60;99.90;;;-0.33;100.00;101521.66;4873852;29;20224;-82
2022/01/21 07:40:39;;;;;;;0.20;0.20;;;0.70;99.90;;;-0.22;100.00;101532.81;4878527;29;20235;-83
2022/01/21 07:43:08;;;;;;;0.20;0.20;;;0.70;99.90;;;-0.31;100.00;101516.56;4854300;29;20201;-83
2022/01/21 07:45:37;;;;;;;0.20;0.20;;;0.80;99.90;;;0.27;100.00;101585.63;4894813;29;20209;-82
2022/01/21 07:48:06;;;;;;;0.30;0.30;;;0.80;99.90;;;-0.10;100.00;101512.84;4889164;29;20212;-83
2022/01/21 07:50:35;;;;;;;0.20;0.20;;;0.70;99.90;;;-0.37;100.00;101491.06;4892850;29;20244;-82
2022/01/21 07:53:04;;;;;;;0.20;0.20;;;0.20;99.90;;;-0.28;100.00;101521.09;4885575;29;20221;-82
2022/01/21 07:55:32;;;;;;;0.20;0.20;;;0.60;99.90;;;-0.18;100.00;101539.13;4889327;29;20232;-83
2022/01/21 07:58:01;;;;;;;0.20;0.20;;;0.40;99.90;;;-0.04;100.00;101553.97;4845443;29;20239;-83
2022/01/21 08:00:30;;;;;;;0.30;0.30;;;0.50;99.90;;;0.09;100.00;101561.88;4882720;29;20223;-83
2022/01/21 08:02:58;;;;;;;0.20;0.20;;;0.80;99.90;;;0.13;100.00;101566.47;4869375;29;20212;-83
2022/01/21 08:05:30;;;;;;;0.30;0.30;;;0.70;99.90;;;0.18;100.00;101566.78;4856636;29;20209;-83
2022/01/21 08:07:58;;;;;;;0.20;0.20;;;0.30;99.90;;;0.31;100.00;101582.44;4855472;29;20228;-83
2022/01/21 08:10:27;;;;;;;0.20;0.20;;;0.40;99.90;;;0.44;100.00;101587.69;4890172;29;20233;-83
2022/01/21 08:12:55;;;;;;;0.20;0.20;;;0.50;99.90;;;0.54;100.00;101597.91;4854493;29;20209;-83
2022/01/21 08:15:23;;;;;;;0.20;0.20;;;0.90;99.90;;;0.82;100.00;101618.88;4892207;29;20208;-83
2022/01/21 08:17:51;;;;;;;0.20;0.20;;;0.80;99.90;;;0.95;100.00;101616.28;4897794;29;20228;-83
2022/01/21 08:20:19;;;;;;;0.30;0.30;;;1.30;99.90;;;1.12;100.00;101622.63;4880571;29;20222;-83
2022/01/21 08:22:47;;;;;;;0.20;0.20;;;0.90;99.90;;;1.04;100.00;101600.38;4886965;29;20220;-83
2022/01/21 08:25:16;;;;;;;0.20;0.20;;;1.10;99.90;;;1.11;100.00;101609.50;4877965;29;20200;-83
2022/01/21 08:27:44;;;;;;;0.20;0.20;;;1.50;99.90;;;1.06;100.00;101598.75;4875716;29;20224;-83
2022/01/21 08:30:13;;;;;;;0.20;0.20;;;1.60;99.90;;;1.22;100.00;101613.69;4898028;29;20247;-83
2022/01/21 08:32:41;;;;;;;0.20;0.20;;;1.30;99.90;;;1.29;100.00;101615.91;4887480;29;20200;-82
2022/01/21 08:35:10;;;;;;;0.20;0.20;;;1.50;99.90;;;1.08;100.00;101602.38;4860020;29;20219;-83
2022/01/21 08:37:38;;;;;;;0.20;0.20;;;1.80;99.90;;;0.93;100.00;101593.56;4886177;29;20236;-83
2022/01/21 08:40:09;;;;;;;0.70;0.70;;;2.00;99.90;;;0.94;100.00;101597.97;4885741;29;20314;-82
2022/01/21 08:42:37;;;;;;;0.20;0.20;;;1.50;99.90;;;1.07;100.00;101626.63;4888231;29;20208;-83
2022/01/21 08:45:06;;;;;;;0.20;0.20;;;1.80;99.90;;;1.07;100.00;101624.00;4871553;29;20205;-83
2022/01/21 08:47:34;;;;;;;0.20;0.20;;;1.30;99.90;;;1.09;100.00;101622.41;4861369;29;20217;-83
2022/01/21 08:50:07;;;;;;;0.20;0.20;;;1.90;99.90;;;1.11;100.00;101640.75;4897981;29;20229;-83
2022/01/21 08:52:40;;;;;;;0.20;0.20;;;1.40;99.90;;;1.08;100.00;101644.06;4880617;29;20216;-83
2022/01/21 08:55:13;;;;;;;0.20;0.20;;;1.60;99.90;;;1.09;100.00;101648.47;4884932;29;20211;-83
2022/01/21 08:57:44;;;;;;;0.20;0.20;;;1.50;99.90;;;1.09;100.00;101656.28;4894437;29;20229;-83
2022/01/21 09:00:20;;;;;;;0.22;0.22;;;1.40;99.90;;;1.19;100.00;101663.91;4899095;29;20241;-83
2022/01/21 09:02:51;;;;;;;0.20;0.20;;;1.40;99.90;;;1.24;100.00;101677.25;4888042;29;20208;-83
2022/01/21 09:05:19;;;;;;;0.20;0.20;;;2.00;99.90;;;1.23;100.00;101681.53;4889712;29;20220;-83
2022/01/21 09:07:47;;;;;;;0.20;0.20;;;2.10;99.90;;;1.24;100.00;101677.25;4891791;29;20208;-83
2022/01/21 09:10:15;;;;;;;0.20;0.20;;;2.00;99.90;;;1.31;100.00;101687.28;4863179;29;20616;-84
2022/01/21 09:12:43;;;;;;;0.20;0.20;;;1.70;99.90;;;1.39;100.00;101695.63;4878870;29;20216;-84
2022/01/21 09:15:11;;;;;;;0.20;0.20;;;1.90;99.90;;;1.38;100.00;101696.41;4879977;29;20232;-84
2022/01/21 09:17:40;;;;;;;0.20;0.20;;;1.60;99.90;;;1.51;100.00;101715.56;4874535;29;20207;-85
2022/01/21 09:20:08;;;;;;;0.20;0.20;;;1.90;99.90;;;1.58;100.00;101711.66;4890170;29;20232;-83
2022/01/21 09:22:36;;;;;;;0.20;0.20;;;1.80;99.90;;;1.80;100.00;101742.66;4913055;29;20213;-84
2022/01/21 09:25:05;;;;;;;0.20;0.20;;;1.90;99.90;;;1.74;100.00;101731.81;4847367;29;20204;-83
2022/01/21 09:27:33;;;;;;;0.20;0.20;;;2.00;99.90;;;1.72;100.00;101733.41;4890746;29;20216;-83
2022/01/21 09:30:05;;;;;;;0.20;0.20;;;2.10;99.90;;;1.76;100.00;101738.94;4859733;29;20239;-82
2022/01/21 09:32:35;;;;;;;0.20;0.20;;;2.00;99.90;;;1.80;100.00;101743.53;4873711;29;20208;-81
2022/01/21 09:35:04;;;;;;;0.20;0.20;;;2.00;99.90;;;1.89;100.00;101758.88;4870253;29;20212;-81
2022/01/21 09:37:32;;;;;;;0.20;0.20;;;2.10;99.90;;;1.84;100.00;101747.25;4887029;29;20220;-83
2022/01/21 09:40:00;;;;;;;0.20;0.20;;;2.10;99.90;;;1.96;100.00;101762.78;4874375;29;20247;-82
2022/01/21 09:42:33;;;;;;;0.20;0.20;;;2.50;99.90;;;2.16;100.00;101772.81;4866669;29;20603;-82
2022/01/21 09:45:08;;;;;;;0.20;0.20;;;2.30;99.90;;;2.41;100.00;101770.94;4882036;29;20227;-82
2022/01/21 09:47:47;;;;;;;0.20;0.20;;;2.50;99.90;;;2.46;100.00;101758.19;4900289;29;20201;-82
2022/01/21 09:50:19;;;;;;;0.20;0.20;;;2.60;99.90;;;2.67;100.00;101763.88;4879418;29;20602;-82
2022/01/21 09:52:52;;;;;;;0.52;0.52;;;2.80;99.90;;;2.77;100.00;101743.63;4882017;29;20209;-81
2022/01/21 09:55:22;;;;;;;0.20;0.20;;;2.90;99.90;;;2.81;100.00;101727.31;4888274;29;20212;-82
2022/01/21 09:57:55;;;;;;;0.20;0.20;;;2.90;99.90;;;2.94;100.00;101720.22;4858987;29;20210;-81
2022/01/21 10:00:26;;;;;;;0.20;0.20;;;2.90;99.90;;;2.94;100.00;101695.00;4889380;29;20236;-82
2022/01/21 10:02:57;;;;;;;0.20;0.20;;;3.10;99.90;;;3.01;100.00;101684.09;4893893;29;20229;-82
2022/01/21 10:05:28;;;;;;;0.20;0.20;;;3.20;99.90;;;3.00;100.00;101666.63;4897655;29;20212;-82
2022/01/21 10:07:59;;;;;;;0.20;0.20;;;3.20;99.90;;;3.12;100.00;101672.56;4862329;29;20546;-82
2022/01/21 10:10:27;;;;;;;0.20;0.20;;;3.10;99.90;;;3.16;100.00;101663.19;4857290;29;20239;-82
2022/01/21 10:13:02;;;;;;;0.50;0.50;;;3.30;99.90;;;3.20;100.00;101665.16;4869698;29;20224;-82
2022/01/21 10:15:30;;;;;;;0.20;0.20;;;3.30;99.90;;;3.27;100.00;101664.72;4875473;29;20209;-82
2022/01/21 10:18:03;;;;;;;0.20;0.20;;;3.50;99.90;;;3.39;100.00;101677.59;4885809;29;20215;-82
2022/01/21 10:21:07;;;;;;;0.28;0.28;;;3.50;99.90;;;3.44;100.00;101671.81;4896654;29;20235;-82
2022/01/21 10:23:39;;;;;;;0.20;0.20;;;3.60;99.90;;;3.42;100.00;101649.00;4909196;29;20595;-82
2022/01/21 10:26:13;;;;;;;0.20;0.20;;;3.60;99.90;;;3.39;100.00;101634.03;4897024;29;20204;-82
2022/01/21 10:28:53;;;;;;;0.20;0.20;;;3.60;99.90;;;3.49;100.00;101636.34;4863202;29;20216;-82
2022/01/21 10:31:23;;;;;;;0.20;0.20;;;3.70;99.90;;;3.45;100.00;101608.22;4872992;29;20208;-82
2022/01/21 10:33:56;;;;;;;0.20;0.20;;;3.80;99.90;;;3.50;100.00;101606.78;4877998;29;20229;-82
2022/01/21 10:36:28;;;;;;;0.20;0.20;;;3.90;99.90;;;3.48;100.00;101603.16;4891122;29;20220;-82
2022/01/21 10:39:09;;;;;;;0.20;0.20;;;3.80;99.90;;;3.57;100.00;101614.97;4901242;29;20235;-82
2022/01/21 10:41:49;;;;;;;0.20;0.20;;;3.80;99.90;;;3.71;100.00;101638.47;4894338;29;20213;-82
2022/01/21 10:44:19;;;;;;;0.20;0.20;;;3.90;99.90;;;3.62;100.00;101606.56;4870020;29;20204;-82
2022/01/21 10:47:13;;;;;;;0.20;0.20;;;3.90;99.90;;;3.70;100.00;101626.19;4877089;29;20209;-82
2022/01/21 10:49:44;;;;;;;0.20;0.20;;;4.00;99.90;;;3.68;100.00;101621.69;4872977;29;20242;-82
2022/01/21 10:52:15;;;;;;;0.10;0.10;;;4.00;99.90;;;3.75;100.00;101627.34;4871243;29;20216;-82
2022/01/21 10:54:51;;;;;;;0.15;0.15;;;4.10;99.90;;;3.90;100.00;101652.56;4888626;29;20208;-82
2022/01/21 10:57:21;;;;;;;0.20;0.20;;;4.20;99.90;;;3.74;100.00;101602.00;4871374;29;20624;-83
2022/01/21 11:00:09;;;;;;;0.20;0.20;;;4.20;99.90;;;3.77;100.00;101611.72;4898040;29;20240;-82
2022/01/21 11:02:48;;;;;;;0.20;0.20;;;4.20;99.90;;;3.87;100.00;101637.59;4893145;29;20201;-82
2022/01/21 11:05:25;;;;;;;0.10;0.10;;;4.20;99.90;;;3.96;100.00;101637.22;4890792;29;20217;-82
2022/01/21 11:08:03;;;;;;;0.20;0.20;;;4.30;99.90;;;3.91;100.00;101596.81;4903067;29;20213;-83
2022/01/21 11:10:35;;;;;;;0.20;0.20;;;4.30;99.90;;;3.96;100.00;101592.72;4869471;29;20227;-83
2022/01/21 11:13:23;;;;;;;0.20;0.20;;;4.40;99.90;;;4.04;100.00;101602.78;4891392;29;20209;-83
2022/01/21 11:15:57;;;;;;;0.20;0.20;;;4.50;99.90;;;4.05;100.00;101588.88;4879416;29;20209;-82
2022/01/21 11:19:11;;;;;;;0.10;0.10;;;4.50;99.90;;;4.02;100.00;101565.16;4892583;29;20219;-82
2022/01/21 11:21:42;;;;;;;0.20;0.20;;;4.50;99.90;;;4.10;100.00;101579.56;4876067;29;20215;-82
2022/01/21 11:24:14;;;;;;;0.20;0.20;;;4.60;99.90;;;4.31;100.00;101611.22;4884829;29;20200;-82
2022/01/21 11:26:42;;;;;;;0.20;0.20;;;4.60;99.90;;;4.22;100.00;101574.06;4866756;29;20212;-81
2022/01/21 11:29:11;;;;;;;0.20;0.20;;;4.70;99.90;;;4.40;100.00;101603.84;4867451;29;20710;-81